Time;durP1;ratioP1;P1;durP2;ratioP2;P2;SDS_P1;SDS_P2;PMS_P1;PMS_P2;Temp;Humidity;BMP_temperature;BMP_pressure;BME280_temperature;BME280_humidity;BME280_pressure;Samples;Min_cycle;Max_cycle;Signal;HPM_P1;HPM_P2
2023/06/28 00:01:36;;;;;;;1.10;0.70;;;;;;;12.85;76.44;100376.58;105417;1254;72721;-57
2023/06/28 00:04:05;;;;;;;2.70;0.90;;;;;;;12.86;76.36;100376.74;105465;1254;69169;-57
2023/06/28 00:06:34;;;;;;;2.60;1.00;;;;;;;12.85;76.33;100371.70;105489;1254;69100;-58
2023/06/28 00:09:02;;;;;;;1.80;0.80;;;;;;;12.82;76.48;100365.69;105475;1254;72739;-57
2023/06/28 00:11:31;;;;;;;3.20;0.80;;;;;;;12.80;76.70;100369.79;105471;1256;83858;-57
2023/06/28 00:13:59;;;;;;;3.80;0.80;;;;;;;12.80;76.61;100369.65;105445;1257;72774;-58
2023/06/28 00:16:28;;;;;;;3.50;0.90;;;;;;;12.79;76.80;100366.88;105491;1254;69061;-57
2023/06/28 00:19:00;;;;;;;1.80;0.70;;;;;;;12.80;77.08;100363.35;105417;1257;69776;-58
2023/06/28 00:21:28;;;;;;;1.40;0.80;;;;;;;12.80;76.90;100364.91;105458;1259;73830;-57
2023/06/28 00:24:00;;;;;;;2.10;0.90;;;;;;;12.81;77.11;100363.29;105572;1257;83220;-57
2023/06/28 00:26:28;;;;;;;3.50;1.00;;;;;;;12.84;77.03;100360.71;105478;1260;73606;-57
2023/06/28 00:28:56;;;;;;;4.80;1.00;;;;;;;12.87;77.45;100359.13;105435;1255;69204;-58
2023/06/28 00:31:25;;;;;;;2.30;0.80;;;;;;;12.92;77.42;100356.80;105449;1259;69123;-57
2023/06/28 00:33:56;;;;;;;3.60;0.70;;;;;;;12.96;77.30;100359.41;105407;1259;73840;-57
2023/06/28 00:36:25;;;;;;;1.80;1.10;;;;;;;12.99;77.45;100364.02;105453;1257;83025;-57
2023/06/28 00:38:53;;;;;;;1.40;0.80;;;;;;;13.00;77.40;100370.65;105467;1254;73571;-57
2023/06/28 00:41:21;;;;;;;3.40;1.20;;;;;;;13.00;77.41;100366.09;105348;1259;69147;-57
2023/06/28 00:43:50;;;;;;;4.50;1.00;;;;;;;12.98;77.35;100366.53;105460;1257;69141;-57
2023/06/28 00:46:18;;;;;;;2.10;1.00;;;;;;;12.96;77.61;100367.30;105367;1261;72950;-57
2023/06/28 00:48:47;;;;;;;2.50;1.10;;;;;;;12.95;77.46;100361.75;105462;1259;83148;-58
2023/06/28 00:51:18;;;;;;;2.90;1.20;;;;;;;12.91;77.44;100364.02;105479;1258;73405;-57
2023/06/28 00:53:48;;;;;;;2.10;1.00;;;;;;;12.89;77.59;100361.65;105426;1254;69171;-57
2023/06/28 00:56:17;;;;;;;2.50;1.10;;;;;;;12.86;77.43;100362.19;105357;1254;69182;-55
2023/06/28 00:58:46;;;;;;;5.10;1.60;;;;;;;12.82;78.02;100363.58;105487;1257;73814;-57
2023/06/28 01:01:15;;;;;;;5.00;1.60;;;;;;;12.79;78.05;100359.90;105475;1254;82467;-57
2023/06/28 01:03:51;;;;;;;2.50;1.20;;;;;;;12.76;78.15;100366.18;105471;1257;73765;-58
2023/06/28 01:06:21;;;;;;;2.30;0.90;;;;;;;12.72;78.23;100365.65;105281;1254;69262;-57
2023/06/28 01:08:49;;;;;;;2.30;1.10;;;;;;;12.69;78.64;100362.08;105392;1257;69199;-57
2023/06/28 01:11:19;;;;;;;;;;;;;;;12.67;78.69;100359.39;105382;1254;73192;-58
2023/06/28 01:13:48;;;;;;;1.60;0.90;;;;;;;12.64;78.98;100363.04;105304;1260;83050;-56
2023/06/28 01:16:17;;;;;;;3.40;1.00;;;;;;;12.61;79.05;100367.23;105334;1254;73667;-57
2023/06/28 01:18:47;;;;;;;2.50;1.20;;;;;;;12.56;78.90;100361.98;105427;1259;69088;-56
2023/06/28 01:21:16;;;;;;;3.80;1.20;;;;;;;12.55;79.36;100363.63;105310;1256;69186;-57
2023/06/28 01:23:47;;;;;;;2.80;1.10;;;;;;;12.54;79.65;100360.69;105466;1257;72889;-57
2023/06/28 01:26:17;;;;;;;7.60;1.30;;;;;;;12.53;79.51;100358.31;105470;1257;83064;-56
2023/06/28 01:28:46;;;;;;;3.60;1.30;;;;;;;12.50;79.59;100358.04;105439;1254;73488;-57
2023/06/28 01:31:14;;;;;;;2.20;0.90;;;;;;;12.49;79.58;100361.41;105501;1257;69192;-57
2023/06/28 01:33:42;;;;;;;4.10;1.30;;;;;;;12.48;79.86;100363.20;105462;1257;69174;-56
2023/06/28 01:36:11;;;;;;;3.40;1.00;;;;;;;12.48;79.91;100360.23;105468;1257;74026;-57
2023/06/28 01:38:40;;;;;;;2.60;1.30;;;;;;;12.47;80.18;100359.40;105529;1257;83411;-57
2023/06/28 01:41:09;;;;;;;5.10;1.40;;;;;;;12.48;80.49;100362.90;105499;1257;73020;-56
2023/06/28 01:43:39;;;;;;;2.40;1.40;;;;;;;12.47;80.51;100362.73;105396;1255;69164;-57
2023/06/28 01:46:08;;;;;;;2.30;1.20;;;;;;;12.45;80.34;100361.95;105337;1254;69151;-56
2023/06/28 01:48:37;;;;;;;3.80;1.30;;;;;;;12.43;80.55;100360.83;105470;1254;74156;-56
2023/06/28 01:51:06;;;;;;;2.30;1.10;;;;;;;12.41;80.69;100362.16;105485;1255;83407;-57
2023/06/28 01:53:35;;;;;;;4.40;1.30;;;;;;;12.39;80.93;100360.65;105480;1254;73698;-57
2023/06/28 01:56:03;;;;;;;2.40;1.30;;;;;;;12.38;80.94;100358.61;105347;1260;69216;-57
2023/06/28 01:58:32;;;;;;;1.90;1.10;;;;;;;12.37;81.16;100358.80;105465;1258;69197;-57
2023/06/28 02:01:00;;;;;;;1.80;1.10;;;;;;;12.36;80.98;100355.22;105455;1254;74113;-57
2023/06/28 02:03:29;;;;;;;3.30;1.40;;;;;;;12.33;81.29;100353.58;105391;1258;82363;-56
2023/06/28 02:05:57;;;;;;;2.50;1.10;;;;;;;12.32;81.48;100352.05;105439;1257;73612;-56
2023/06/28 02:08:26;;;;;;;3.10;1.00;;;;;;;12.31;81.04;100350.17;105400;1254;69168;-57
2023/06/28 02:10:54;;;;;;;1.90;1.00;;;;;;;12.27;81.35;100348.73;105402;1258;69161;-57
2023/06/28 02:13:22;;;;;;;5.20;1.50;;;;;;;12.25;81.55;100350.08;105330;1260;73483;-55
2023/06/28 02:15:51;;;;;;;2.40;0.90;;;;;;;12.23;81.50;100352.27;105384;1257;82492;-57
2023/06/28 02:18:24;;;;;;;2.70;1.50;;;;;;;12.21;81.67;100352.17;105409;1254;73197;-57
2023/06/28 02:20:54;;;;;;;5.80;1.40;;;;;;;12.21;81.89;100351.63;105319;1254;69074;-57
2023/06/28 02:23:22;;;;;;;4.60;1.40;;;;;;;12.20;81.87;100352.39;105448;1257;69061;-57
2023/06/28 02:25:51;;;;;;;1.50;0.90;;;;;;;12.21;82.11;100352.70;105465;1254;73041;-57
2023/06/28 02:28:19;;;;;;;2.20;1.20;;;;;;;12.22;81.95;100350.40;105442;1257;83173;-57
2023/06/28 02:30:48;;;;;;;4.00;1.50;;;;;;;12.20;82.06;100349.95;105400;1260;72580;-57
2023/06/28 02:33:17;;;;;;;1.90;1.20;;;;;;;12.20;82.15;100353.64;105469;1257;69180;-57
2023/06/28 02:35:45;;;;;;;5.50;1.30;;;;;;;12.20;82.12;100355.75;105504;1258;69129;-56
2023/06/28 02:38:14;;;;;;;5.90;1.30;;;;;;;12.19;82.32;100359.98;105417;1254;73902;-57
2023/06/28 02:40:42;;;;;;;3.50;1.10;;;;;;;12.18;82.39;100364.58;105356;1259;83155;-57
2023/06/28 02:43:11;;;;;;;1.70;1.00;;;;;;;12.17;82.39;100360.41;105423;1257;73967;-57
2023/06/28 02:45:40;;;;;;;1.90;1.30;;;;;;;12.18;82.39;100363.89;105465;1254;69267;-57
2023/06/28 02:48:09;;;;;;;2.40;1.30;;;;;;;12.20;82.80;100369.21;105474;1257;69186;-58
2023/06/28 02:50:37;;;;;;;1.90;1.40;;;;;;;12.22;82.95;100369.31;105371;1253;74234;-58
2023/06/28 02:53:12;;;;;;;3.10;1.10;;;;;;;12.22;82.74;100369.30;105488;1257;83215;-58
2023/06/28 02:55:41;;;;;;;3.60;1.20;;;;;;;12.23;82.78;100368.91;105431;1257;73637;-59
2023/06/28 02:58:09;;;;;;;2.60;1.30;;;;;;;12.24;82.92;100368.68;105346;1260;69184;-58
2023/06/28 03:00:38;;;;;;;2.60;1.40;;;;;;;12.23;82.81;100371.01;105522;1257;69120;-58
2023/06/28 03:03:09;;;;;;;4.10;1.50;;;;;;;12.23;82.84;100373.11;105380;1254;74065;-58
2023/06/28 03:05:41;;;;;;;3.30;1.70;;;;;;;12.21;82.97;100370.55;105375;1254;82989;-58
2023/06/28 03:08:10;;;;;;;3.90;1.30;;;;;;;12.22;82.95;100369.48;105456;1257;73512;-59
2023/06/28 03:10:40;;;;;;;2.50;1.30;;;;;;;12.23;82.98;100371.52;105506;1257;69075;-58
2023/06/28 03:13:08;;;;;;;2.70;1.30;;;;;;;12.23;83.05;100371.34;105473;1257;69129;-58
2023/06/28 03:15:37;;;;;;;4.80;1.60;;;;;;;12.23;83.32;100371.36;105526;1254;73773;-59
2023/06/28 03:18:06;;;;;;;3.30;1.70;;;;;;;12.23;83.18;100372.42;105408;1255;83231;-58
2023/06/28 03:20:35;;;;;;;4.30;1.60;;;;;;;12.23;83.11;100376.09;105229;1253;73880;-58
2023/06/28 03:23:03;;;;;;;1.90;1.30;;;;;;;12.22;83.24;100373.14;105372;1257;69089;-58
2023/06/28 03:25:32;;;;;;;2.30;1.30;;;;;;;12.24;83.19;100375.36;105378;1259;69184;-58
2023/06/28 03:28:01;;;;;;;2.40;1.50;;;;;;;12.25;83.46;100374.92;105439;1257;74070;-58
2023/06/28 03:30:30;;;;;;;2.40;1.50;;;;;;;12.27;83.38;100376.26;105371;1259;83576;-58
2023/06/28 03:32:58;;;;;;;2.90;1.80;;;;;;;12.28;83.52;100373.40;105366;1259;73662;-58
2023/06/28 03:35:27;;;;;;;2.40;1.50;;;;;;;12.30;83.48;100371.58;105417;1253;69102;-58
2023/06/28 03:37:56;;;;;;;2.40;1.40;;;;;;;12.31;83.51;100371.89;105405;1257;69117;-58
2023/06/28 03:40:24;;;;;;;2.70;1.40;;;;;;;12.33;83.58;100374.23;105471;1257;74355;-58
2023/06/28 03:42:53;;;;;;;2.40;1.40;;;;;;;12.36;84.02;100379.52;105340;1258;83193;-58
2023/06/28 03:45:21;;;;;;;4.70;2.30;;;;;;;12.39;83.94;100379.09;105435;1257;73435;-58
2023/06/28 03:47:51;;;;;;;5.60;1.80;;;;;;;12.41;83.91;100372.84;105441;1254;69099;-58
2023/06/28 03:50:19;;;;;;;4.20;1.60;;;;;;;12.44;83.98;100375.85;105329;1259;69175;-58
2023/06/28 03:52:48;;;;;;;3.80;1.40;;;;;;;12.46;84.00;100377.52;105445;1253;73795;-58
2023/06/28 03:55:17;;;;;;;6.10;1.60;;;;;;;12.48;84.23;100377.73;105463;1256;82156;-58
2023/06/28 03:57:45;;;;;;;2.80;1.40;;;;;;;12.51;84.23;100378.52;105448;1257;73665;-58
2023/06/28 04:00:15;;;;;;;4.00;1.80;;;;;;;12.56;84.33;100377.42;105432;1254;69138;-58
2023/06/28 04:02:44;;;;;;;3.70;1.50;;;;;;;12.58;84.13;100378.36;105475;1257;69192;-58
2023/06/28 04:05:13;;;;;;;5.20;1.50;;;;;;;12.60;84.21;100383.00;105459;1253;72952;-58
2023/06/28 04:07:42;;;;;;;4.10;1.50;;;;;;;12.64;84.24;100384.07;105450;1256;83222;-58
2023/06/28 04:10:11;;;;;;;3.00;1.60;;;;;;;12.68;84.23;100377.56;105449;1257;73805;-58
2023/06/28 04:12:39;;;;;;;3.60;1.50;;;;;;;12.74;84.58;100386.04;105437;1254;69088;-58
2023/06/28 04:15:10;;;;;;;3.80;1.70;;;;;;;12.81;84.40;100384.71;105435;1257;69075;-58
2023/06/28 04:17:38;;;;;;;5.80;1.60;;;;;;;12.85;84.44;100383.98;105468;1254;73021;-58
2023/06/28 04:20:07;;;;;;;1.90;1.40;;;;;;;12.92;84.45;100387.15;105550;1257;83133;-58
2023/06/28 04:22:36;;;;;;;4.70;1.80;;;;;;;12.99;84.31;100387.16;105413;1257;74084;-58
2023/06/28 04:25:05;;;;;;;5.90;1.70;;;;;;;13.08;84.19;100387.46;105485;1257;69209;-58
2023/06/28 04:27:33;;;;;;;6.10;1.60;;;;;;;13.15;84.40;100388.67;105458;1257;69103;-57
2023/06/28 04:30:02;;;;;;;3.90;1.60;;;;;;;13.23;84.21;100386.91;105458;1253;73788;-58
2023/06/28 04:32:31;;;;;;;5.10;1.60;;;;;;;13.30;84.25;100382.02;105474;1257;83588;-58
2023/06/28 04:35:01;;;;;;;5.70;1.60;;;;;;;13.38;84.11;100380.42;105467;1253;72764;-58
2023/06/28 04:37:31;;;;;;;6.30;1.70;;;;;;;13.45;83.91;100378.88;105405;1255;69124;-58
2023/06/28 04:40:06;;;;;;;4.00;1.70;;;;;;;13.50;84.00;100380.55;105437;1257;69132;-58
2023/06/28 04:42:34;;;;;;;3.60;1.50;;;;;;;13.56;83.80;100380.25;105479;1257;73501;-58
2023/06/28 04:45:06;;;;;;;4.50;1.50;;;;;;;13.60;83.95;100376.52;105452;1257;83134;-58
2023/06/28 04:47:36;;;;;;;5.60;2.00;;;;;;;13.66;83.76;100377.98;105422;1253;72762;-57
2023/06/28 04:50:05;;;;;;;6.40;2.10;;;;;;;13.66;83.57;100378.67;105444;1254;69266;-56
2023/06/28 04:52:33;;;;;;;5.20;1.70;;;;;;;13.67;83.44;100389.00;105457;1257;69193;-57
2023/06/28 04:55:02;;;;;;;2.80;1.20;;;;;;;13.68;83.52;100391.39;105504;1253;74227;-56
2023/06/28 04:57:30;;;;;;;3.00;1.40;;;;;;;13.69;83.32;100388.55;105602;1253;82428;-55
2023/06/28 04:59:59;;;;;;;3.40;1.60;;;;;;;13.70;83.44;100381.29;105541;1257;73422;-57
2023/06/28 05:02:27;;;;;;;4.80;1.60;;;;;;;13.71;83.19;100383.17;105552;1254;69168;-56
2023/06/28 05:04:56;;;;;;;4.20;1.50;;;;;;;13.71;83.39;100384.92;105498;1253;69125;-56
2023/06/28 05:07:25;;;;;;;5.20;1.90;;;;;;;13.73;83.35;100385.50;105545;1253;73752;-56
2023/06/28 05:09:54;;;;;;;3.50;1.80;;;;;;;13.75;83.59;100380.66;105534;1253;82431;-56
2023/06/28 05:12:22;;;;;;;4.80;1.80;;;;;;;13.78;83.37;100375.30;105529;1253;72609;-56
2023/06/28 05:14:51;;;;;;;3.50;1.90;;;;;;;13.79;83.41;100377.84;105502;1252;70509;-54
2023/06/28 05:17:19;;;;;;;2.80;1.60;;;;;;;13.81;83.46;100370.70;105533;1257;69790;-56
2023/06/28 05:19:48;;;;;;;6.10;1.70;;;;;;;13.85;83.48;100368.95;105410;1254;73962;-56
2023/06/28 05:22:16;;;;;;;5.60;2.10;;;;;;;13.89;83.33;100363.81;105346;1258;83421;-56
2023/06/28 05:24:44;;;;;;;3.60;2.00;;;;;;;13.93;83.42;100362.77;105283;1254;72827;-57
2023/06/28 05:27:13;;;;;;;5.30;1.90;;;;;;;13.97;83.26;100369.07;105231;1254;69235;-57
2023/06/28 05:29:41;;;;;;;5.50;1.60;;;;;;;14.01;83.45;100368.63;105433;1254;69119;-55
2023/06/28 05:32:10;;;;;;;4.70;1.70;;;;;;;14.09;83.45;100369.14;105290;1254;73852;-56
2023/06/28 05:34:38;;;;;;;6.50;1.60;;;;;;;14.16;83.55;100370.31;105328;1255;83227;-55
2023/06/28 05:37:06;;;;;;;5.00;1.80;;;;;;;14.22;83.26;100373.50;105295;1258;73628;-56
2023/06/28 05:39:35;;;;;;;3.30;1.60;;;;;;;14.25;83.20;100371.23;105359;1259;69154;-55
2023/06/28 05:42:03;;;;;;;5.10;1.70;;;;;;;14.29;83.04;100377.17;105477;1255;69124;-55
2023/06/28 05:44:32;;;;;;;6.30;2.10;;;;;;;14.35;83.14;100378.30;105443;1258;73084;-56
2023/06/28 05:47:00;;;;;;;3.30;1.70;;;;;;;14.43;83.00;100380.14;105328;1258;82905;-56
2023/06/28 05:49:29;;;;;;;7.60;1.80;;;;;;;14.51;82.98;100379.73;105353;1258;73587;-56
2023/06/28 05:51:57;;;;;;;6.00;1.90;;;;;;;14.61;83.02;100383.78;105401;1254;69169;-56
2023/06/28 05:54:26;;;;;;;6.50;1.90;;;;;;;14.72;82.95;100389.16;105376;1255;69686;-57
2023/06/28 05:56:55;;;;;;;7.90;1.90;;;;;;;14.84;82.70;100389.05;105378;1253;73889;-56
2023/06/28 05:59:23;;;;;;;6.40;1.70;;;;;;;14.94;82.38;100385.84;105340;1258;83124;-57
2023/06/28 06:01:52;;;;;;;5.90;2.20;;;;;;;15.03;82.24;100384.30;105434;1253;72437;-55
2023/06/28 06:04:23;;;;;;;2.50;1.50;;;;;;;15.10;81.81;100381.79;105364;1254;69226;-57
2023/06/28 06:06:51;;;;;;;3.80;2.10;;;;;;;15.15;81.58;100381.53;105444;1257;69200;-57
2023/06/28 06:09:21;;;;;;;4.90;2.00;;;;;;;15.21;81.71;100385.05;105377;1253;73938;-55
2023/06/28 06:11:49;;;;;;;4.80;1.70;;;;;;;15.27;81.72;100383.30;105360;1257;83278;-58
2023/06/28 06:14:17;;;;;;;6.60;1.70;;;;;;;15.40;81.75;100385.73;105419;1253;72509;-58
2023/06/28 06:16:46;;;;;;;5.30;1.80;;;;;;;15.52;81.38;100383.44;105399;1257;69068;-57
2023/06/28 06:19:14;;;;;;;6.40;2.40;;;;;;;15.60;81.14;100385.30;105403;1257;69113;-58
2023/06/28 06:21:43;;;;;;;11.50;1.80;;;;;;;15.67;80.94;100390.54;105901;1253;73928;-57
2023/06/28 06:24:11;;;;;;;4.90;1.70;;;;;;;15.72;80.59;100393.09;105480;1257;83483;-56
2023/06/28 06:26:40;;;;;;;6.70;1.80;;;;;;;15.73;80.05;100398.32;105433;1253;73489;-56
2023/06/28 06:29:08;;;;;;;6.50;1.70;;;;;;;15.71;79.70;100397.17;105599;1253;69146;-57
2023/06/28 06:31:37;;;;;;;6.10;1.70;;;;;;;15.73;79.59;100400.92;105481;1257;69862;-53
2023/06/28 06:34:05;;;;;;;5.50;2.00;;;;;;;15.81;79.63;100399.41;105495;1253;73148;-53
2023/06/28 06:36:36;;;;;;;7.20;2.00;;;;;;;15.89;79.32;100396.86;105426;1257;83254;-50
2023/06/28 06:39:04;;;;;;;;;;;;;;;15.98;79.18;100396.30;105669;1257;73028;-50
2023/06/28 06:41:33;;;;;;;5.50;1.70;;;;;;;16.04;78.97;100394.01;105701;1256;69154;-51
2023/06/28 06:44:01;;;;;;;5.90;1.80;;;;;;;16.06;78.77;100394.91;105324;1258;70035;-52
2023/06/28 06:46:30;;;;;;;8.50;2.10;;;;;;;16.02;78.23;100399.39;105452;1253;74534;-51
2023/06/28 06:48:58;;;;;;;4.40;1.70;;;;;;;16.08;78.43;100399.06;105517;1257;82672;-52
2023/06/28 06:51:30;;;;;;;5.30;1.80;;;;;;;16.14;78.40;100397.48;105561;1252;73402;-53
2023/06/28 06:53:59;;;;;;;5.60;1.80;;;;;;;16.06;77.85;100400.24;105728;1253;69157;-55
2023/06/28 06:56:27;;;;;;;9.60;2.00;;;;;;;16.00;77.69;100391.05;105737;1252;69068;-53
2023/06/28 06:58:56;;;;;;;5.30;1.50;;;;;;;16.05;77.96;100395.86;105589;1253;73788;-51
2023/06/28 07:01:24;;;;;;;6.30;1.80;;;;;;;16.06;77.94;100392.27;105836;1256;83521;-53
2023/06/28 07:03:53;;;;;;;6.20;2.00;;;;;;;16.10;77.86;100388.36;105652;1256;73217;-50
2023/06/28 07:06:21;;;;;;;6.10;1.80;;;;;;;16.22;78.23;100390.94;105693;1256;69862;-50
2023/06/28 07:08:50;;;;;;;5.30;1.50;;;;;;;16.39;77.92;100391.34;105543;1253;70095;-53
2023/06/28 07:11:18;;;;;;;7.20;1.40;;;;;;;16.50;77.21;100390.85;105497;1253;73895;-51
2023/06/28 07:13:47;;;;;;;4.60;1.40;;;;;;;16.60;76.74;100387.56;105273;1258;278582;-52
2023/06/28 07:16:17;;;;;;;4.00;1.40;;;;;;;16.75;76.45;100388.65;105480;1258;73884;-51
2023/06/28 07:18:45;;;;;;;6.50;2.10;;;;;;;16.90;76.29;100386.94;105450;1254;69798;-50
2023/06/28 07:21:14;;;;;;;4.30;1.30;;;;;;;16.96;75.66;100386.92;105581;1257;69840;-49
2023/06/28 07:23:43;;;;;;;4.40;1.50;;;;;;;16.97;75.39;100386.50;105445;1257;73152;-53
2023/06/28 07:26:11;;;;;;;4.30;1.60;;;;;;;17.05;75.55;100383.17;105437;1257;83031;-50
2023/06/28 07:28:40;;;;;;;11.80;2.10;;;;;;;17.11;75.51;100384.58;105522;1253;73579;-50
2023/06/28 07:31:09;;;;;;;7.20;1.80;;;;;;;17.20;75.27;100382.20;105436;1253;70040;-53
2023/06/28 07:33:37;;;;;;;5.60;1.50;;;;;;;17.21;74.56;100378.63;105488;1257;69868;-52
2023/06/28 07:36:06;;;;;;;4.60;1.50;;;;;;;17.20;74.07;100380.66;105525;1253;73769;-54
2023/06/28 07:38:35;;;;;;;3.90;1.30;;;;;;;17.24;73.78;100383.05;105476;1254;81664;-54
2023/06/28 07:41:03;;;;;;;6.10;1.80;;;;;;;17.27;73.56;100380.20;105617;1253;73616;-54
2023/06/28 07:43:34;;;;;;;4.50;1.70;;;;;;;17.38;73.52;100386.84;105492;1253;69928;-51
2023/06/28 07:46:03;;;;;;;11.70;1.80;;;;;;;17.45;73.21;100383.04;105475;1252;70008;-50
2023/06/28 07:48:32;;;;;;;6.70;2.10;;;;;;;17.47;72.61;100388.91;105603;1253;73447;-50
2023/06/28 07:51:00;;;;;;;7.30;2.00;;;;;;;17.59;72.77;100391.13;105584;1257;83240;-51
2023/06/28 07:53:29;;;;;;;8.60;1.90;;;;;;;17.74;72.17;100392.27;105446;1253;73575;-50
2023/06/28 07:55:57;;;;;;;7.10;1.60;;;;;;;17.76;71.47;100393.21;105476;1253;69756;-51
2023/06/28 07:58:25;;;;;;;7.20;1.60;;;;;;;17.78;71.42;100396.93;105443;1257;69991;-50
2023/06/28 08:00:54;;;;;;;5.30;1.80;;;;;;;17.65;70.46;100397.61;105462;1253;72733;-50
2023/06/28 08:03:22;;;;;;;5.60;1.40;;;;;;;17.56;70.65;100394.50;105512;1254;83582;-50
2023/06/28 08:05:51;;;;;;;5.50;1.40;;;;;;;17.62;70.49;100395.52;105419;1254;73375;-51
2023/06/28 08:08:19;;;;;;;6.00;1.70;;;;;;;17.62;70.54;100396.58;105443;1253;69872;-50
2023/06/28 08:10:48;;;;;;;7.60;1.60;;;;;;;17.57;70.34;100392.89;105449;1257;69873;-50
2023/06/28 08:13:16;;;;;;;4.90;1.70;;;;;;;17.49;70.35;100393.94;105493;1253;74072;-50
2023/06/28 08:15:45;;;;;;;6.40;2.00;;;;;;;17.42;70.12;100397.74;105445;1253;83091;-51
2023/06/28 08:18:16;;;;;;;6.80;1.90;;;;;;;17.27;69.78;100402.23;105443;1257;74076;-51
2023/06/28 08:20:44;;;;;;;5.10;1.80;;;;;;;17.16;70.18;100401.01;105437;1253;70026;-50
2023/06/28 08:23:13;;;;;;;6.50;1.50;;;;;;;17.15;70.30;100402.46;105455;1257;69912;-49
2023/06/28 08:25:41;;;;;;;9.10;1.80;;;;;;;17.11;70.18;100404.71;105457;1253;74254;-50
2023/06/28 08:28:10;;;;;;;4.70;1.80;;;;;;;17.11;70.29;100408.60;105471;1257;83277;-51
2023/06/28 08:30:39;;;;;;;6.70;1.70;;;;;;;17.10;70.19;100403.15;105500;1257;73643;-52
2023/06/28 08:33:07;;;;;;;9.90;2.00;;;;;;;17.06;69.88;100409.09;105462;1253;69215;-56
2023/06/28 08:35:36;;;;;;;6.60;1.60;;;;;;;16.94;69.64;100405.94;105473;1253;69135;-55
2023/06/28 08:38:04;;;;;;;5.80;1.60;;;;;;;16.83;69.64;100411.56;105443;1253;74514;-54
2023/06/28 08:40:33;;;;;;;3.10;1.20;;;;;;;16.75;69.67;100420.21;105461;1253;83401;-56
2023/06/28 08:43:02;;;;;;;6.80;1.80;;;;;;;16.70;69.89;100412.73;105450;1253;73455;-57
2023/06/28 08:45:34;;;;;;;4.40;1.60;;;;;;;16.67;70.10;100415.89;105456;1257;69216;-55
2023/06/28 08:48:03;;;;;;;5.80;1.40;;;;;;;16.65;70.25;100408.81;105507;1257;69912;-54
2023/06/28 08:50:51;;;;;;;5.20;1.30;;;;;;;16.56;70.07;100408.27;105487;1253;73165;-55
2023/06/28 08:53:21;;;;;;;5.00;1.40;;;;;;;16.49;70.31;100411.71;105443;1257;83336;-55
2023/06/28 08:55:50;;;;;;;;;;;;;;;16.49;70.73;100408.16;105390;1256;73232;-57
2023/06/28 08:58:18;;;;;;;5.60;1.70;;;;;;;16.54;71.07;100405.79;105480;1254;69152;-58
2023/06/28 09:00:47;;;;;;;4.50;1.60;;;;;;;16.63;71.08;100403.96;105436;1259;69289;-53
2023/06/28 09:03:15;;;;;;;4.90;1.60;;;;;;;16.73;71.06;100407.76;105479;1253;72841;-56
2023/06/28 09:05:45;;;;;;;8.10;1.40;;;;;;;16.77;70.96;100400.35;105507;1253;82645;-51
2023/06/28 09:08:15;;;;;;;5.20;1.70;;;;;;;16.83;71.18;100405.05;105521;1253;73729;-55
2023/06/28 09:10:45;;;;;;;5.50;1.40;;;;;;;16.87;71.06;100401.83;105374;1253;69235;-53
2023/06/28 09:13:19;;;;;;;6.30;1.50;;;;;;;16.89;71.02;100406.82;105434;1257;69116;-55
2023/06/28 09:15:48;;;;;;;6.70;1.60;;;;;;;16.82;70.60;100404.58;105618;1257;72953;-56
2023/06/28 09:18:16;;;;;;;5.50;1.50;;;;;;;16.70;70.23;100404.59;105371;1257;83407;-55
2023/06/28 09:20:53;;;;;;;7.10;1.50;;;;;;;16.58;70.02;100410.85;105478;1253;74103;-56
2023/06/28 09:23:26;;;;;;;7.10;1.60;;;;;;;16.49;70.08;100411.04;105360;1253;69171;-54
2023/06/28 09:25:56;;;;;;;6.30;1.80;;;;;;;16.42;69.96;100408.64;105495;1257;69295;-55
2023/06/28 09:28:35;;;;;;;4.60;1.50;;;;;;;16.35;69.91;100413.34;105493;1253;73938;-53
2023/06/28 09:31:05;;;;;;;4.40;2.10;;;;;;;16.24;70.03;100417.27;105427;1257;83061;-54
2023/06/28 09:33:33;;;;;;;4.90;1.20;;;;;;;16.18;70.25;100422.39;105460;1253;72683;-51
2023/06/28 09:36:02;;;;;;;4.10;1.60;;;;;;;16.16;70.58;100429.05;105504;1253;69212;-53
2023/06/28 09:38:31;;;;;;;6.70;1.70;;;;;;;16.11;70.58;100426.92;105475;1253;69084;-54
2023/06/28 09:41:01;;;;;;;7.40;1.70;;;;;;;16.00;70.62;100426.86;105301;1254;72998;-54
2023/06/28 09:43:34;;;;;;;5.20;1.80;;;;;;;15.90;70.84;100433.08;105446;1255;83344;-51
2023/06/28 09:46:16;;;;;;;4.30;1.60;;;;;;;15.80;71.38;100439.96;105483;1253;72714;-54
2023/06/28 09:48:48;;;;;;;6.90;1.80;;;;;;;15.70;72.15;100444.09;105457;1253;69035;-51
2023/06/28 09:51:18;;;;;;;7.10;2.30;;;;;;;15.56;72.32;100446.94;105491;1253;69189;-55
2023/06/28 09:53:53;;;;;;;;;;;;;;;15.42;72.67;100440.90;105465;1253;73071;-53
2023/06/28 09:56:35;;;;;;;4.50;1.80;;;;;;;15.30;73.65;100443.49;105496;1253;82624;-52
2023/06/28 09:59:07;;;;;;;4.10;1.60;;;;;;;15.29;74.19;100445.00;105465;1253;73799;-56
2023/06/28 10:01:43;;;;;;;7.30;1.90;;;;;;;15.28;74.83;100450.50;105468;1257;69208;-55
2023/06/28 10:04:12;;;;;;;4.90;1.90;;;;;;;15.29;75.26;100451.16;105469;1257;69177;-55
2023/06/28 10:06:43;;;;;;;5.10;1.80;;;;;;;15.27;75.68;100448.62;105376;1258;73049;-55
2023/06/28 10:09:15;;;;;;;4.10;2.00;;;;;;;15.25;75.62;100452.25;105501;1258;83126;-56
2023/06/28 10:11:46;;;;;;;5.20;1.90;;;;;;;15.10;76.00;100452.20;105474;1253;73394;-57
2023/06/28 10:14:17;;;;;;;6.60;1.70;;;;;;;15.00;76.93;100455.41;105463;1257;69107;-52
2023/06/28 10:16:50;;;;;;;5.80;2.30;;;;;;;14.91;77.10;100455.70;105450;1253;69162;-58
2023/06/28 10:19:18;;;;;;;;;;;;;;;14.84;77.68;100452.90;105472;1252;74260;-57
2023/06/28 10:21:46;;;;;;;6.70;1.90;;;;;;;14.81;78.23;100456.77;105489;1257;83396;-58
2023/06/28 10:24:15;;;;;;;6.00;2.30;;;;;;;14.80;78.57;100454.55;105339;1253;73659;-56
2023/06/28 10:26:44;;;;;;;3.50;2.00;;;;;;;14.75;78.72;100451.44;105461;1253;69178;-57
2023/06/28 10:29:12;;;;;;;4.90;2.20;;;;;;;14.74;79.31;100451.16;105436;1257;69206;-58
2023/06/28 10:31:41;;;;;;;8.40;2.10;;;;;;;14.78;79.61;100454.67;105511;1253;74099;-58
2023/06/28 10:34:10;;;;;;;6.60;2.30;;;;;;;14.79;79.76;100453.52;105361;1258;83145;-58
2023/06/28 10:36:39;;;;;;;6.80;2.20;;;;;;;14.81;79.92;100451.63;105485;1253;73434;-58
2023/06/28 10:39:08;;;;;;;4.40;2.00;;;;;;;14.84;80.08;100444.46;105431;1253;69090;-58
2023/06/28 10:41:37;;;;;;;6.60;2.00;;;;;;;14.88;79.83;100443.52;105524;1253;69244;-59
2023/06/28 10:44:06;;;;;;;5.80;2.50;;;;;;;14.96;79.80;100441.34;105377;1253;73790;-59
2023/06/28 10:46:36;;;;;;;5.90;2.30;;;;;;;15.11;80.01;100438.27;105469;1253;83327;-56
2023/06/28 10:49:05;;;;;;;8.20;2.20;;;;;;;15.34;80.14;100432.91;105334;1256;74676;-60
2023/06/28 10:51:35;;;;;;;6.00;2.10;;;;;;;15.56;80.00;100438.53;105475;1254;69113;-58
2023/06/28 10:54:13;;;;;;;6.40;2.30;;;;;;;15.72;79.38;100433.59;105506;1258;69189;-58
2023/06/28 10:56:50;;;;;;;4.90;2.10;;;;;;;15.83;78.99;100432.27;105464;1257;74042;-58
2023/06/28 10:59:18;;;;;;;7.60;1.80;;;;;;;15.97;79.13;100433.92;105517;1253;81936;-58
2023/06/28 11:01:53;;;;;;;8.40;1.70;;;;;;;16.16;78.91;100432.44;105421;1253;73700;-57
2023/06/28 11:04:23;;;;;;;4.70;1.80;;;;;;;16.31;78.51;100429.20;105438;1253;69106;-58
2023/06/28 11:07:03;;;;;;;2.80;1.60;;;;;;;16.46;78.20;100424.77;105468;1256;69279;-58
2023/06/28 11:09:32;;;;;;;6.20;1.90;;;;;;;16.62;77.96;100425.92;105476;1253;73834;-59
2023/06/28 11:12:02;;;;;;;4.80;1.80;;;;;;;16.76;77.39;100429.86;105478;1257;82648;-59
2023/06/28 11:14:32;;;;;;;9.50;2.00;;;;;;;16.89;76.83;100432.91;105370;1254;73484;-58
2023/06/28 11:17:13;;;;;;;5.30;2.30;;;;;;;16.98;76.18;100422.30;105403;1258;69301;-58
2023/06/28 11:19:42;;;;;;;4.90;2.10;;;;;;;17.17;76.01;100424.27;105440;1257;69200;-58
2023/06/28 11:22:11;;;;;;;4.90;2.10;;;;;;;17.35;75.85;100423.29;105519;1258;72098;-59
2023/06/28 11:24:39;;;;;;;11.90;2.30;;;;;;;17.49;75.34;100422.16;105506;1253;82921;-58
2023/06/28 11:27:17;;;;;;;6.80;2.40;;;;;;;17.64;74.77;100422.77;105462;1258;73484;-58
2023/06/28 11:29:52;;;;;;;6.80;2.20;;;;;;;17.78;74.12;100419.73;105336;1258;69179;-58